sensor_id;sensor_type;location;lat;lon;timestamp;P1;durP1;ratioP1;P2;durP2;ratioP2
37409;SDS011;23275;48.914;12.566;2022-12-18T00:01:06;47.70;;;21.23;;
37409;SDS011;23275;48.914;12.566;2022-12-18T00:03:43;47.25;;;19.13;;
37409;SDS011;23275;48.914;12.566;2022-12-18T00:06:09;52.40;;;20.40;;
37409;SDS011;23275;48.914;12.566;2022-12-18T00:08:35;44.15;;;18.80;;
37409;SDS011;23275;48.914;12.566;2022-12-18T00:11:04;49.80;;;18.73;;
37409;SDS011;23275;48.914;12.566;2022-12-18T00:13:30;42.63;;;18.65;;
37409;SDS011;23275;48.914;12.566;2022-12-18T00:16:00;48.30;;;19.45;;
37409;SDS011;23275;48.914;12.566;2022-12-18T00:18:27;46.22;;;18.67;;
37409;SDS011;23275;48.914;12.566;2022-12-18T00:20:52;42.90;;;19.70;;
37409;SDS011;23275;48.914;12.566;2022-12-18T00:23:18;46.00;;;18.95;;
37409;SDS011;23275;48.914;12.566;2022-12-18T00:25:43;47.85;;;19.35;;
37409;SDS011;23275;48.914;12.566;2022-12-18T00:28:09;42.70;;;18.05;;
37409;SDS011;23275;48.914;12.566;2022-12-18T00:30:34;52.22;;;20.20;;
37409;SDS011;23275;48.914;12.566;2022-12-18T00:33:00;47.70;;;20.38;;
37409;SDS011;23275;48.914;12.566;2022-12-18T00:35:26;53.92;;;20.95;;
37409;SDS011;23275;48.914;12.566;2022-12-18T00:37:51;46.47;;;19.48;;
37409;SDS011;23275;48.914;12.566;2022-12-18T00:40:17;43.13;;;19.60;;
37409;SDS011;23275;48.914;12.566;2022-12-18T00:42:42;49.00;;;20.00;;
37409;SDS011;23275;48.914;12.566;2022-12-18T00:45:27;48.13;;;20.88;;
37409;SDS011;23275;48.914;12.566;2022-12-18T00:47:54;41.67;;;18.67;;
37409;SDS011;23275;48.914;12.566;2022-12-18T00:50:21;52.13;;;20.63;;
37409;SDS011;23275;48.914;12.566;2022-12-18T00:52:47;47.90;;;18.48;;
37409;SDS011;23275;48.914;12.566;2022-12-18T00:55:12;53.30;;;20.95;;
37409;SDS011;23275;48.914;12.566;2022-12-18T00:57:38;47.65;;;19.27;;
37409;SDS011;23275;48.914;12.566;2022-12-18T01:00:05;47.33;;;19.05;;
37409;SDS011;23275;48.914;12.566;2022-12-18T01:02:32;48.35;;;19.58;;
37409;SDS011;23275;48.914;12.566;2022-12-18T01:04:57;47.80;;;19.30;;
37409;SDS011;23275;48.914;12.566;2022-12-18T01:07:23;52.85;;;21.77;;
37409;SDS011;23275;48.914;12.566;2022-12-18T01:09:48;53.85;;;21.20;;
37409;SDS011;23275;48.914;12.566;2022-12-18T01:12:14;50.55;;;20.33;;
37409;SDS011;23275;48.914;12.566;2022-12-18T01:14:40;53.35;;;22.15;;
37409;SDS011;23275;48.914;12.566;2022-12-18T01:17:05;48.95;;;21.13;;
37409;SDS011;23275;48.914;12.566;2022-12-18T01:19:31;49.58;;;20.23;;
37409;SDS011;23275;48.914;12.566;2022-12-18T01:21:56;47.10;;;19.60;;
37409;SDS011;23275;48.914;12.566;2022-12-18T01:24:22;53.92;;;20.65;;
37409;SDS011;23275;48.914;12.566;2022-12-18T01:26:48;49.38;;;19.35;;
37409;SDS011;23275;48.914;12.566;2022-12-18T01:29:13;45.03;;;18.05;;
37409;SDS011;23275;48.914;12.566;2022-12-18T01:31:39;45.95;;;19.27;;
37409;SDS011;23275;48.914;12.566;2022-12-18T01:34:05;38.88;;;16.75;;
37409;SDS011;23275;48.914;12.566;2022-12-18T01:36:31;39.47;;;18.02;;
37409;SDS011;23275;48.914;12.566;2022-12-18T01:39:03;46.20;;;16.52;;
37409;SDS011;23275;48.914;12.566;2022-12-18T01:41:34;44.15;;;18.90;;
37409;SDS011;23275;48.914;12.566;2022-12-18T01:50:02;49.03;;;20.48;;
37409;SDS011;23275;48.914;12.566;2022-12-18T01:52:56;43.05;;;18.48;;
37409;SDS011;23275;48.914;12.566;2022-12-18T01:55:29;41.80;;;17.10;;
37409;SDS011;23275;48.914;12.566;2022-12-18T01:57:58;41.67;;;17.25;;
37409;SDS011;23275;48.914;12.566;2022-12-18T02:00:25;46.05;;;17.92;;
37409;SDS011;23275;48.914;12.566;2022-12-18T02:02:52;41.63;;;18.42;;
37409;SDS011;23275;48.914;12.566;2022-12-18T02:06:06;46.03;;;18.50;;
37409;SDS011;23275;48.914;12.566;2022-12-18T02:08:10;43.92;;;17.42;;
37409;SDS011;23275;48.914;12.566;2022-12-18T02:13:43;44.78;;;18.38;;
37409;SDS011;23275;48.914;12.566;2022-12-18T02:19:13;46.80;;;17.73;;
37409;SDS011;23275;48.914;12.566;2022-12-18T02:21:50;43.05;;;18.08;;
37409;SDS011;23275;48.914;12.566;2022-12-18T02:24:44;46.30;;;18.70;;
37409;SDS011;23275;48.914;12.566;2022-12-18T02:27:32;43.95;;;17.17;;
37409;SDS011;23275;48.914;12.566;2022-12-18T02:30:00;42.08;;;16.52;;
37409;SDS011;23275;48.914;12.566;2022-12-18T02:32:30;40.53;;;17.27;;
37409;SDS011;23275;48.914;12.566;2022-12-18T02:34:58;43.70;;;17.90;;
37409;SDS011;23275;48.914;12.566;2022-12-18T02:37:25;43.72;;;16.98;;
37409;SDS011;23275;48.914;12.566;2022-12-18T02:39:53;39.90;;;16.60;;
37409;SDS011;23275;48.914;12.566;2022-12-18T02:42:21;44.78;;;18.48;;
37409;SDS011;23275;48.914;12.566;2022-12-18T02:44:48;41.15;;;16.55;;
37409;SDS011;23275;48.914;12.566;2022-12-18T02:47:16;44.67;;;17.77;;
37409;SDS011;23275;48.914;12.566;2022-12-18T02:49:51;39.50;;;17.17;;
37409;SDS011;23275;48.914;12.566;2022-12-18T02:52:58;40.75;;;16.88;;
37409;SDS011;23275;48.914;12.566;2022-12-18T03:00:52;33.65;;;16.55;;
37409;SDS011;23275;48.914;12.566;2022-12-18T03:03:38;44.08;;;17.58;;
37409;SDS011;23275;48.914;12.566;2022-12-18T03:06:23;44.25;;;18.73;;
37409;SDS011;23275;48.914;12.566;2022-12-18T03:08:58;43.40;;;17.52;;
37409;SDS011;23275;48.914;12.566;2022-12-18T03:11:27;44.55;;;17.70;;
37409;SDS011;23275;48.914;12.566;2022-12-18T03:14:15;42.42;;;16.40;;
37409;SDS011;23275;48.914;12.566;2022-12-18T03:16:44;45.53;;;18.10;;
37409;SDS011;23275;48.914;12.566;2022-12-18T03:19:15;47.47;;;19.13;;
37409;SDS011;23275;48.914;12.566;2022-12-18T03:21:43;53.88;;;18.92;;
37409;SDS011;23275;48.914;12.566;2022-12-18T03:24:13;43.70;;;17.75;;
37409;SDS011;23275;48.914;12.566;2022-12-18T03:26:41;49.08;;;19.35;;
37409;SDS011;23275;48.914;12.566;2022-12-18T03:29:12;48.75;;;19.83;;
37409;SDS011;23275;48.914;12.566;2022-12-18T03:32:05;54.55;;;19.05;;
37409;SDS011;23275;48.914;12.566;2022-12-18T03:34:35;51.00;;;19.38;;
37409;SDS011;23275;48.914;12.566;2022-12-18T03:37:05;47.33;;;18.85;;
37409;SDS011;23275;48.914;12.566;2022-12-18T03:39:31;47.67;;;20.00;;
37409;SDS011;23275;48.914;12.566;2022-12-18T03:47:27;48.28;;;18.88;;
37409;SDS011;23275;48.914;12.566;2022-12-18T03:50:09;48.47;;;17.90;;
37409;SDS011;23275;48.914;12.566;2022-12-18T03:53:00;43.03;;;15.65;;
37409;SDS011;23275;48.914;12.566;2022-12-18T03:55:53;44.45;;;16.67;;
37409;SDS011;23275;48.914;12.566;2022-12-18T03:58:22;39.55;;;14.57;;
37409;SDS011;23275;48.914;12.566;2022-12-18T04:00:50;43.08;;;16.90;;
37409;SDS011;23275;48.914;12.566;2022-12-18T04:03:19;43.58;;;17.13;;
37409;SDS011;23275;48.914;12.566;2022-12-18T04:05:46;40.33;;;16.63;;
37409;SDS011;23275;48.914;12.566;2022-12-18T04:08:15;40.92;;;16.48;;
37409;SDS011;23275;48.914;12.566;2022-12-18T04:10:41;46.92;;;17.40;;
37409;SDS011;23275;48.914;12.566;2022-12-18T04:13:06;47.15;;;18.25;;
37409;SDS011;23275;48.914;12.566;2022-12-18T04:15:33;49.22;;;17.77;;
37409;SDS011;23275;48.914;12.566;2022-12-18T04:18:00;48.78;;;17.52;;
37409;SDS011;23275;48.914;12.566;2022-12-18T04:20:26;45.63;;;17.27;;
37409;SDS011;23275;48.914;12.566;2022-12-18T04:22:52;53.10;;;19.83;;
37409;SDS011;23275;48.914;12.566;2022-12-18T04:25:18;61.30;;;19.95;;
37409;SDS011;23275;48.914;12.566;2022-12-18T04:27:43;50.03;;;19.17;;
37409;SDS011;23275;48.914;12.566;2022-12-18T04:30:09;55.95;;;20.60;;
37409;SDS011;23275;48.914;12.566;2022-12-18T04:32:35;55.83;;;17.52;;
37409;SDS011;23275;48.914;12.566;2022-12-18T04:35:01;50.95;;;18.52;;
37409;SDS011;23275;48.914;12.566;2022-12-18T04:37:29;55.92;;;18.70;;
37409;SDS011;23275;48.914;12.566;2022-12-18T04:39:55;52.70;;;17.63;;
37409;SDS011;23275;48.914;12.566;2022-12-18T04:42:20;59.85;;;20.17;;
37409;SDS011;23275;48.914;12.566;2022-12-18T04:44:46;61.75;;;19.75;;
37409;SDS011;23275;48.914;12.566;2022-12-18T04:47:11;57.70;;;20.45;;
37409;SDS011;23275;48.914;12.566;2022-12-18T04:49:37;58.33;;;20.48;;
37409;SDS011;23275;48.914;12.566;2022-12-18T04:52:02;53.15;;;19.38;;
37409;SDS011;23275;48.914;12.566;2022-12-18T04:54:28;62.47;;;21.63;;
37409;SDS011;23275;48.914;12.566;2022-12-18T04:56:54;59.22;;;20.15;;
37409;SDS011;23275;48.914;12.566;2022-12-18T04:59:19;58.20;;;18.50;;
37409;SDS011;23275;48.914;12.566;2022-12-18T05:01:45;59.85;;;17.48;;
37409;SDS011;23275;48.914;12.566;2022-12-18T05:04:10;55.35;;;17.98;;
37409;SDS011;23275;48.914;12.566;2022-12-18T05:06:36;57.72;;;19.27;;
37409;SDS011;23275;48.914;12.566;2022-12-18T05:09:02;67.78;;;20.70;;
37409;SDS011;23275;48.914;12.566;2022-12-18T05:11:28;63.17;;;20.25;;
37409;SDS011;23275;48.914;12.566;2022-12-18T05:13:53;73.68;;;21.77;;
37409;SDS011;23275;48.914;12.566;2022-12-18T05:16:20;58.15;;;20.00;;
37409;SDS011;23275;48.914;12.566;2022-12-18T05:18:45;55.70;;;20.52;;
37409;SDS011;23275;48.914;12.566;2022-12-18T05:21:11;58.58;;;20.58;;
37409;SDS011;23275;48.914;12.566;2022-12-18T05:23:37;60.38;;;20.85;;
37409;SDS011;23275;48.914;12.566;2022-12-18T05:26:03;64.63;;;22.38;;
37409;SDS011;23275;48.914;12.566;2022-12-18T05:28:31;68.32;;;19.83;;
37409;SDS011;23275;48.914;12.566;2022-12-18T05:31:00;62.70;;;20.58;;
37409;SDS011;23275;48.914;12.566;2022-12-18T05:33:28;64.65;;;20.20;;
37409;SDS011;23275;48.914;12.566;2022-12-18T05:35:57;59.25;;;20.48;;
37409;SDS011;23275;48.914;12.566;2022-12-18T05:38:29;57.50;;;18.77;;
37409;SDS011;23275;48.914;12.566;2022-12-18T05:40:55;60.80;;;19.98;;
37409;SDS011;23275;48.914;12.566;2022-12-18T05:43:24;57.92;;;20.52;;
37409;SDS011;23275;48.914;12.566;2022-12-18T05:45:51;48.50;;;19.42;;
37409;SDS011;23275;48.914;12.566;2022-12-18T05:48:18;58.70;;;18.95;;
37409;SDS011;23275;48.914;12.566;2022-12-18T05:50:44;61.75;;;18.77;;
37409;SDS011;23275;48.914;12.566;2022-12-18T05:53:13;54.80;;;19.25;;
37409;SDS011;23275;48.914;12.566;2022-12-18T05:55:40;53.83;;;18.90;;
37409;SDS011;23275;48.914;12.566;2022-12-18T05:58:07;55.65;;;20.67;;
37409;SDS011;23275;48.914;12.566;2022-12-18T06:00:35;58.88;;;18.75;;
37409;SDS011;23275;48.914;12.566;2022-12-18T06:03:04;60.00;;;18.90;;
37409;SDS011;23275;48.914;12.566;2022-12-18T06:05:34;61.67;;;20.38;;
37409;SDS011;23275;48.914;12.566;2022-12-18T06:08:03;52.13;;;18.73;;
37409;SDS011;23275;48.914;12.566;2022-12-18T06:10:29;59.83;;;19.52;;
37409;SDS011;23275;48.914;12.566;2022-12-18T06:12:54;55.90;;;19.73;;
37409;SDS011;23275;48.914;12.566;2022-12-18T06:15:20;71.20;;;21.80;;
37409;SDS011;23275;48.914;12.566;2022-12-18T06:17:45;59.80;;;20.98;;
37409;SDS011;23275;48.914;12.566;2022-12-18T06:20:11;54.78;;;19.70;;
37409;SDS011;23275;48.914;12.566;2022-12-18T06:22:37;61.95;;;20.80;;
37409;SDS011;23275;48.914;12.566;2022-12-18T06:25:02;59.47;;;20.48;;
37409;SDS011;23275;48.914;12.566;2022-12-18T06:27:28;55.13;;;19.48;;
37409;SDS011;23275;48.914;12.566;2022-12-18T06:29:54;49.45;;;20.02;;
37409;SDS011;23275;48.914;12.566;2022-12-18T06:32:20;55.60;;;18.52;;
37409;SDS011;23275;48.914;12.566;2022-12-18T06:34:45;55.90;;;20.50;;
37409;SDS011;23275;48.914;12.566;2022-12-18T06:37:11;55.97;;;19.70;;
37409;SDS011;23275;48.914;12.566;2022-12-18T06:39:36;59.70;;;19.63;;
37409;SDS011;23275;48.914;12.566;2022-12-18T06:42:02;68.93;;;20.10;;
37409;SDS011;23275;48.914;12.566;2022-12-18T06:44:28;58.63;;;19.70;;
37409;SDS011;23275;48.914;12.566;2022-12-18T06:46:54;64.00;;;21.55;;
37409;SDS011;23275;48.914;12.566;2022-12-18T06:49:19;56.00;;;19.60;;
37409;SDS011;23275;48.914;12.566;2022-12-18T06:51:45;54.13;;;19.63;;
37409;SDS011;23275;48.914;12.566;2022-12-18T06:54:11;68.03;;;21.58;;
37409;SDS011;23275;48.914;12.566;2022-12-18T06:56:36;62.38;;;20.02;;
37409;SDS011;23275;48.914;12.566;2022-12-18T06:59:02;65.72;;;21.75;;
37409;SDS011;23275;48.914;12.566;2022-12-18T07:01:27;59.67;;;19.85;;
37409;SDS011;23275;48.914;12.566;2022-12-18T07:03:53;59.38;;;20.15;;
37409;SDS011;23275;48.914;12.566;2022-12-18T07:06:20;55.97;;;20.38;;
37409;SDS011;23275;48.914;12.566;2022-12-18T07:08:48;61.50;;;20.42;;
37409;SDS011;23275;48.914;12.566;2022-12-18T07:11:14;58.95;;;19.90;;
37409;SDS011;23275;48.914;12.566;2022-12-18T07:13:40;56.20;;;18.40;;
37409;SDS011;23275;48.914;12.566;2022-12-18T07:16:13;51.10;;;19.70;;
37409;SDS011;23275;48.914;12.566;2022-12-18T07:18:40;53.63;;;18.00;;
37409;SDS011;23275;48.914;12.566;2022-12-18T07:21:06;52.50;;;17.92;;
37409;SDS011;23275;48.914;12.566;2022-12-18T07:23:37;59.50;;;18.52;;
37409;SDS011;23275;48.914;12.566;2022-12-18T07:26:04;54.97;;;17.83;;
37409;SDS011;23275;48.914;12.566;2022-12-18T07:28:31;52.55;;;17.83;;
37409;SDS011;23275;48.914;12.566;2022-12-18T07:30:57;47.60;;;18.52;;
37409;SDS011;23275;48.914;12.566;2022-12-18T07:33:27;41.30;;;16.43;;
37409;SDS011;23275;48.914;12.566;2022-12-18T07:35:52;56.33;;;17.88;;
37409;SDS011;23275;48.914;12.566;2022-12-18T07:38:18;51.78;;;19.45;;
37409;SDS011;23275;48.914;12.566;2022-12-18T07:40:43;46.10;;;17.88;;
37409;SDS011;23275;48.914;12.566;2022-12-18T07:43:09;54.03;;;18.42;;
37409;SDS011;23275;48.914;12.566;2022-12-18T07:45:34;48.20;;;18.25;;
37409;SDS011;23275;48.914;12.566;2022-12-18T07:48:00;49.60;;;18.13;;
37409;SDS011;23275;48.914;12.566;2022-12-18T07:50:25;55.33;;;18.73;;
37409;SDS011;23275;48.914;12.566;2022-12-18T07:52:51;43.50;;;16.42;;
37409;SDS011;23275;48.914;12.566;2022-12-18T07:55:16;45.92;;;17.08;;
37409;SDS011;23275;48.914;12.566;2022-12-18T07:57:42;49.45;;;16.55;;
37409;SDS011;23275;48.914;12.566;2022-12-18T08:00:07;47.58;;;17.33;;
37409;SDS011;23275;48.914;12.566;2022-12-18T08:02:33;50.97;;;16.85;;
37409;SDS011;23275;48.914;12.566;2022-12-18T08:04:59;42.33;;;16.08;;
37409;SDS011;23275;48.914;12.566;2022-12-18T08:07:24;38.78;;;14.60;;
37409;SDS011;23275;48.914;12.566;2022-12-18T08:09:50;41.60;;;16.13;;
37409;SDS011;23275;48.914;12.566;2022-12-18T08:12:16;39.78;;;16.38;;
37409;SDS011;23275;48.914;12.566;2022-12-18T08:14:41;43.72;;;15.93;;
37409;SDS011;23275;48.914;12.566;2022-12-18T08:17:07;41.05;;;15.18;;
37409;SDS011;23275;48.914;12.566;2022-12-18T08:19:32;44.05;;;15.20;;
37409;SDS011;23275;48.914;12.566;2022-12-18T08:21:58;44.15;;;16.15;;
37409;SDS011;23275;48.914;12.566;2022-12-18T08:24:23;43.67;;;17.67;;
37409;SDS011;23275;48.914;12.566;2022-12-18T08:26:49;47.10;;;16.92;;
37409;SDS011;23275;48.914;12.566;2022-12-18T08:29:15;61.90;;;19.85;;
37409;SDS011;23275;48.914;12.566;2022-12-18T08:31:41;54.45;;;19.27;;
37409;SDS011;23275;48.914;12.566;2022-12-18T08:34:07;59.78;;;18.92;;
37409;SDS011;23275;48.914;12.566;2022-12-18T08:36:33;51.10;;;16.83;;
37409;SDS011;23275;48.914;12.566;2022-12-18T08:38:58;47.55;;;17.48;;
37409;SDS011;23275;48.914;12.566;2022-12-18T08:41:24;48.70;;;17.85;;
37409;SDS011;23275;48.914;12.566;2022-12-18T08:43:50;50.72;;;18.08;;
37409;SDS011;23275;48.914;12.566;2022-12-18T08:46:35;49.38;;;17.33;;
37409;SDS011;23275;48.914;12.566;2022-12-18T08:49:03;54.08;;;18.52;;
37409;SDS011;23275;48.914;12.566;2022-12-18T08:51:30;54.20;;;18.98;;
37409;SDS011;23275;48.914;12.566;2022-12-18T08:53:56;46.22;;;17.52;;
37409;SDS011;23275;48.914;12.566;2022-12-18T08:56:21;59.13;;;19.95;;
37409;SDS011;23275;48.914;12.566;2022-12-18T08:58:47;57.08;;;19.10;;
37409;SDS011;23275;48.914;12.566;2022-12-18T09:01:15;48.03;;;18.15;;
37409;SDS011;23275;48.914;12.566;2022-12-18T09:03:41;51.60;;;19.65;;
37409;SDS011;23275;48.914;12.566;2022-12-18T09:06:07;57.15;;;19.40;;
37409;SDS011;23275;48.914;12.566;2022-12-18T09:08:32;52.30;;;17.35;;
37409;SDS011;23275;48.914;12.566;2022-12-18T09:10:58;60.25;;;20.48;;
37409;SDS011;23275;48.914;12.566;2022-12-18T09:13:24;52.80;;;19.27;;
37409;SDS011;23275;48.914;12.566;2022-12-18T09:15:53;50.97;;;19.35;;
37409;SDS011;23275;48.914;12.566;2022-12-18T09:20:46;55.53;;;19.20;;
37409;SDS011;23275;48.914;12.566;2022-12-18T09:23:12;52.38;;;18.67;;
37409;SDS011;23275;48.914;12.566;2022-12-18T09:25:38;49.28;;;17.98;;
37409;SDS011;23275;48.914;12.566;2022-12-18T09:30:31;43.40;;;16.98;;
37409;SDS011;23275;48.914;12.566;2022-12-18T09:32:59;35.38;;;16.55;;
37409;SDS011;23275;48.914;12.566;2022-12-18T09:35:25;46.22;;;18.80;;
37409;SDS011;23275;48.914;12.566;2022-12-18T09:37:52;48.13;;;18.10;;
37409;SDS011;23275;48.914;12.566;2022-12-18T09:40:19;43.35;;;17.85;;
37409;SDS011;23275;48.914;12.566;2022-12-18T09:42:55;43.08;;;16.90;;
37409;SDS011;23275;48.914;12.566;2022-12-18T09:45:30;36.28;;;15.32;;
37409;SDS011;23275;48.914;12.566;2022-12-18T09:48:02;41.83;;;16.20;;
37409;SDS011;23275;48.914;12.566;2022-12-18T09:50:32;43.50;;;17.05;;
37409;SDS011;23275;48.914;12.566;2022-12-18T09:53:02;50.17;;;18.60;;
37409;SDS011;23275;48.914;12.566;2022-12-18T09:55:39;41.03;;;16.15;;
37409;SDS011;23275;48.914;12.566;2022-12-18T09:58:12;42.08;;;17.60;;
37409;SDS011;23275;48.914;12.566;2022-12-18T10:00:39;37.10;;;15.90;;
37409;SDS011;23275;48.914;12.566;2022-12-18T10:03:09;37.28;;;15.10;;
37409;SDS011;23275;48.914;12.566;2022-12-18T10:05:38;38.38;;;15.75;;
37409;SDS011;23275;48.914;12.566;2022-12-18T10:11:21;43.65;;;16.35;;
37409;SDS011;23275;48.914;12.566;2022-12-18T10:25:21;45.63;;;17.23;;
37409;SDS011;23275;48.914;12.566;2022-12-18T10:28:07;44.83;;;17.05;;
37409;SDS011;23275;48.914;12.566;2022-12-18T10:30:37;48.97;;;17.00;;
37409;SDS011;23275;48.914;12.566;2022-12-18T10:33:04;47.00;;;16.80;;
37409;SDS011;23275;48.914;12.566;2022-12-18T10:35:32;44.67;;;18.13;;
37409;SDS011;23275;48.914;12.566;2022-12-18T10:37:59;40.25;;;15.43;;
37409;SDS011;23275;48.914;12.566;2022-12-18T10:45:58;45.63;;;15.52;;
37409;SDS011;23275;48.914;12.566;2022-12-18T10:48:24;38.72;;;15.68;;
37409;SDS011;23275;48.914;12.566;2022-12-18T10:50:50;40.97;;;17.65;;
37409;SDS011;23275;48.914;12.566;2022-12-18T10:53:20;42.50;;;15.85;;
37409;SDS011;23275;48.914;12.566;2022-12-18T10:55:48;44.15;;;15.73;;
37409;SDS011;23275;48.914;12.566;2022-12-18T10:58:18;41.65;;;15.60;;
37409;SDS011;23275;48.914;12.566;2022-12-18T11:01:01;37.97;;;15.85;;
37409;SDS011;23275;48.914;12.566;2022-12-18T11:03:37;45.17;;;17.58;;
37409;SDS011;23275;48.914;12.566;2022-12-18T11:06:06;48.20;;;18.20;;
37409;SDS011;23275;48.914;12.566;2022-12-18T11:08:46;41.50;;;16.15;;
37409;SDS011;23275;48.914;12.566;2022-12-18T11:11:26;46.30;;;17.60;;
37409;SDS011;23275;48.914;12.566;2022-12-18T11:16:24;39.42;;;15.75;;
37409;SDS011;23275;48.914;12.566;2022-12-18T11:18:51;43.63;;;16.58;;
37409;SDS011;23275;48.914;12.566;2022-12-18T11:21:16;42.75;;;17.88;;
37409;SDS011;23275;48.914;12.566;2022-12-18T11:23:46;48.92;;;18.60;;
37409;SDS011;23275;48.914;12.566;2022-12-18T11:26:17;40.72;;;16.40;;
37409;SDS011;23275;48.914;12.566;2022-12-18T11:28:44;41.40;;;16.85;;
37409;SDS011;23275;48.914;12.566;2022-12-18T11:31:32;38.03;;;16.95;;
37409;SDS011;23275;48.914;12.566;2022-12-18T11:36:51;36.90;;;15.25;;
37409;SDS011;23275;48.914;12.566;2022-12-18T11:39:31;32.17;;;14.55;;
37409;SDS011;23275;48.914;12.566;2022-12-18T11:42:09;33.60;;;15.68;;
37409;SDS011;23275;48.914;12.566;2022-12-18T11:47:19;30.33;;;14.30;;
37409;SDS011;23275;48.914;12.566;2022-12-18T11:50:00;34.85;;;14.27;;
37409;SDS011;23275;48.914;12.566;2022-12-18T11:52:29;31.08;;;13.27;;
37409;SDS011;23275;48.914;12.566;2022-12-18T11:55:01;28.75;;;12.73;;
37409;SDS011;23275;48.914;12.566;2022-12-18T11:57:38;29.63;;;13.70;;
37409;SDS011;23275;48.914;12.566;2022-12-18T12:00:12;30.55;;;13.20;;
37409;SDS011;23275;48.914;12.566;2022-12-18T12:05:36;27.25;;;12.90;;
37409;SDS011;23275;48.914;12.566;2022-12-18T12:13:28;33.45;;;13.85;;
37409;SDS011;23275;48.914;12.566;2022-12-18T12:16:02;28.55;;;13.18;;
37409;SDS011;23275;48.914;12.566;2022-12-18T12:23:53;30.95;;;14.13;;
37409;SDS011;23275;48.914;12.566;2022-12-18T12:32:16;28.70;;;13.48;;
37409;SDS011;23275;48.914;12.566;2022-12-18T12:40:35;29.60;;;13.30;;
37409;SDS011;23275;48.914;12.566;2022-12-18T12:43:12;30.25;;;14.35;;
37409;SDS011;23275;48.914;12.566;2022-12-18T12:45:54;31.98;;;14.02;;
37409;SDS011;23275;48.914;12.566;2022-12-18T12:48:33;33.67;;;14.90;;
37409;SDS011;23275;48.914;12.566;2022-12-18T12:51:32;28.38;;;13.80;;
37409;SDS011;23275;48.914;12.566;2022-12-18T12:54:01;33.05;;;14.73;;
37409;SDS011;23275;48.914;12.566;2022-12-18T12:59:20;32.92;;;15.10;;
37409;SDS011;23275;48.914;12.566;2022-12-18T13:04:51;33.78;;;13.95;;
37409;SDS011;23275;48.914;12.566;2022-12-18T13:07:39;35.97;;;14.68;;
37409;SDS011;23275;48.914;12.566;2022-12-18T13:15:44;33.90;;;14.23;;
37409;SDS011;23275;48.914;12.566;2022-12-18T13:18:13;34.63;;;14.70;;
37409;SDS011;23275;48.914;12.566;2022-12-18T13:23:19;33.83;;;15.27;;
37409;SDS011;23275;48.914;12.566;2022-12-18T13:25:48;32.90;;;14.32;;
37409;SDS011;23275;48.914;12.566;2022-12-18T13:28:15;32.85;;;13.80;;
37409;SDS011;23275;48.914;12.566;2022-12-18T13:30:47;31.58;;;14.27;;
37409;SDS011;23275;48.914;12.566;2022-12-18T13:38:22;29.95;;;14.30;;
37409;SDS011;23275;48.914;12.566;2022-12-18T13:40:58;31.70;;;14.40;;
37409;SDS011;23275;48.914;12.566;2022-12-18T13:49:03;31.25;;;14.23;;
37409;SDS011;23275;48.914;12.566;2022-12-18T13:51:44;33.55;;;14.35;;
37409;SDS011;23275;48.914;12.566;2022-12-18T13:59:36;32.20;;;13.80;;
37409;SDS011;23275;48.914;12.566;2022-12-18T14:02:13;31.63;;;14.57;;
37409;SDS011;23275;48.914;12.566;2022-12-18T14:04:45;35.10;;;15.20;;
37409;SDS011;23275;48.914;12.566;2022-12-18T14:07:16;37.63;;;15.13;;
37409;SDS011;23275;48.914;12.566;2022-12-18T14:09:46;35.45;;;15.02;;
37409;SDS011;23275;48.914;12.566;2022-12-18T14:17:47;37.20;;;15.80;;
37409;SDS011;23275;48.914;12.566;2022-12-18T14:20:15;38.60;;;16.35;;
37409;SDS011;23275;48.914;12.566;2022-12-18T14:22:43;36.30;;;16.40;;
37409;SDS011;23275;48.914;12.566;2022-12-18T14:25:24;42.38;;;16.98;;
37409;SDS011;23275;48.914;12.566;2022-12-18T14:28:54;34.53;;;15.82;;
37409;SDS011;23275;48.914;12.566;2022-12-18T14:30:52;39.80;;;17.27;;
37409;SDS011;23275;48.914;12.566;2022-12-18T14:33:26;35.88;;;16.35;;
37409;SDS011;23275;48.914;12.566;2022-12-18T14:35:59;33.70;;;16.67;;
37409;SDS011;23275;48.914;12.566;2022-12-18T14:38:33;39.75;;;18.00;;
37409;SDS011;23275;48.914;12.566;2022-12-18T14:41:09;38.33;;;16.63;;
37409;SDS011;23275;48.914;12.566;2022-12-18T14:43:40;38.35;;;17.23;;
37409;SDS011;23275;48.914;12.566;2022-12-18T14:46:49;44.72;;;19.77;;
37409;SDS011;23275;48.914;12.566;2022-12-18T14:48:59;42.50;;;17.98;;
37409;SDS011;23275;48.914;12.566;2022-12-18T14:51:54;41.92;;;18.70;;
37409;SDS011;23275;48.914;12.566;2022-12-18T14:54:22;49.92;;;20.13;;
37409;SDS011;23275;48.914;12.566;2022-12-18T14:56:56;48.28;;;17.98;;
37409;SDS011;23275;48.914;12.566;2022-12-18T14:59:26;47.78;;;19.92;;
37409;SDS011;23275;48.914;12.566;2022-12-18T15:07:07;42.22;;;18.80;;
37409;SDS011;23275;48.914;12.566;2022-12-18T15:09:38;41.47;;;19.20;;
37409;SDS011;23275;48.914;12.566;2022-12-18T15:12:15;44.92;;;20.23;;
37409;SDS011;23275;48.914;12.566;2022-12-18T15:14:58;46.08;;;19.88;;
37409;SDS011;23275;48.914;12.566;2022-12-18T15:17:23;43.40;;;20.27;;
37409;SDS011;23275;48.914;12.566;2022-12-18T15:19:50;45.58;;;20.63;;
37409;SDS011;23275;48.914;12.566;2022-12-18T15:22:19;46.53;;;19.98;;
37409;SDS011;23275;48.914;12.566;2022-12-18T15:24:49;49.45;;;21.08;;
37409;SDS011;23275;48.914;12.566;2022-12-18T15:27:31;51.30;;;21.05;;
37409;SDS011;23275;48.914;12.566;2022-12-18T15:30:16;49.53;;;21.88;;
37409;SDS011;23275;48.914;12.566;2022-12-18T15:32:43;42.88;;;19.70;;
37409;SDS011;23275;48.914;12.566;2022-12-18T15:35:17;52.75;;;20.95;;
37409;SDS011;23275;48.914;12.566;2022-12-18T15:37:48;45.72;;;20.80;;
37409;SDS011;23275;48.914;12.566;2022-12-18T15:40:15;50.08;;;18.80;;
37409;SDS011;23275;48.914;12.566;2022-12-18T15:42:42;37.10;;;19.02;;
37409;SDS011;23275;48.914;12.566;2022-12-18T15:45:27;44.78;;;18.90;;
37409;SDS011;23275;48.914;12.566;2022-12-18T15:47:53;46.97;;;18.58;;
37409;SDS011;23275;48.914;12.566;2022-12-18T15:50:19;42.78;;;19.50;;
37409;SDS011;23275;48.914;12.566;2022-12-18T15:52:45;43.33;;;18.55;;
37409;SDS011;23275;48.914;12.566;2022-12-18T15:55:15;39.17;;;18.30;;
37409;SDS011;23275;48.914;12.566;2022-12-18T15:58:01;30.35;;;14.73;;
37409;SDS011;23275;48.914;12.566;2022-12-18T16:00:27;36.42;;;14.88;;
37409;SDS011;23275;48.914;12.566;2022-12-18T16:02:52;32.33;;;14.20;;
37409;SDS011;23275;48.914;12.566;2022-12-18T16:05:19;31.33;;;13.65;;
37409;SDS011;23275;48.914;12.566;2022-12-18T16:07:46;31.45;;;14.60;;
37409;SDS011;23275;48.914;12.566;2022-12-18T16:10:12;32.03;;;13.90;;
37409;SDS011;23275;48.914;12.566;2022-12-18T16:12:38;36.10;;;13.77;;
37409;SDS011;23275;48.914;12.566;2022-12-18T16:15:05;31.17;;;15.30;;
37409;SDS011;23275;48.914;12.566;2022-12-18T16:17:31;36.53;;;15.43;;
37409;SDS011;23275;48.914;12.566;2022-12-18T16:19:57;29.63;;;14.15;;
37409;SDS011;23275;48.914;12.566;2022-12-18T16:22:24;28.70;;;14.10;;
37409;SDS011;23275;48.914;12.566;2022-12-18T16:24:52;28.55;;;12.75;;